createdAt,value
2017-06-04T00:00:11.069Z,4064
2017-06-04T00:01:16.711Z,4016
2017-06-04T00:02:22.528Z,3892
2017-06-04T00:03:25.274Z,3768
2017-06-04T00:04:27.968Z,3776
2017-06-04T00:05:30.683Z,3812
2017-06-04T00:06:33.249Z,3804
2017-06-04T00:07:35.879Z,3784
2017-06-04T00:08:38.484Z,3792
2017-06-04T00:09:41.070Z,3732
2017-06-04T00:10:43.572Z,3632
2017-06-04T00:11:46.162Z,3572
2017-06-04T00:12:48.703Z,3556
2017-06-04T00:13:51.613Z,3596
2017-06-04T00:14:54.264Z,3680
2017-06-04T00:15:57.147Z,3744
2017-06-04T00:16:59.932Z,3704
2017-06-04T00:18:02.500Z,3660
2017-06-04T00:19:05.197Z,3644
2017-06-04T00:20:07.760Z,3680
2017-06-04T00:21:10.364Z,3656
2017-06-04T00:22:15.247Z,3624
2017-06-04T00:23:18.024Z,3732
2017-06-04T00:24:22.316Z,3812
2017-06-04T00:25:25.038Z,3696
2017-06-04T00:26:27.653Z,3536
2017-06-04T00:27:30.388Z,3432
2017-06-04T00:28:32.991Z,3332
2017-06-04T00:29:35.601Z,3252
2017-06-04T00:30:38.205Z,3208
2017-06-04T00:31:40.932Z,3164
2017-06-04T00:32:43.590Z,3144
2017-06-04T00:33:46.257Z,3144
2017-06-04T00:34:48.886Z,3148
2017-06-04T00:35:51.588Z,3108
2017-06-04T00:36:54.202Z,3060
2017-06-04T00:37:56.761Z,3036
2017-06-04T00:38:59.452Z,3036
2017-06-04T00:40:02.148Z,3024
2017-06-04T00:41:04.843Z,3012
2017-06-04T00:42:07.560Z,2996
2017-06-04T00:43:10.181Z,2976
2017-06-04T00:44:12.772Z,2964
2017-06-04T00:45:15.403Z,2912
2017-06-04T00:46:18.110Z,2868
2017-06-04T00:47:20.654Z,2832
2017-06-04T00:48:23.245Z,2808
2017-06-04T00:49:25.865Z,2800
2017-06-04T00:50:28.477Z,2812
2017-06-04T00:51:31.179Z,2816
2017-06-04T00:52:33.903Z,2800
2017-06-04T00:53:36.695Z,2744
2017-06-04T00:54:39.406Z,2708
2017-06-04T00:55:41.973Z,2684
2017-06-04T00:56:44.528Z,2660
2017-06-04T00:57:47.148Z,2636
2017-06-04T00:58:49.757Z,2612
2017-06-04T00:59:52.309Z,2600
2017-06-04T01:00:57.451Z,2588
2017-06-04T01:02:05.087Z,2584
2017-06-04T01:03:07.671Z,2572
2017-06-04T01:04:10.309Z,2564
2017-06-04T01:05:12.856Z,2552
2017-06-04T01:06:15.617Z,2540
2017-06-04T01:07:18.196Z,2516
2017-06-04T01:08:20.821Z,2492
2017-06-04T01:09:23.680Z,2472
2017-06-04T01:10:26.377Z,2456
2017-06-04T01:11:29.076Z,2436
2017-06-04T01:12:31.760Z,2424
2017-06-04T01:13:34.391Z,2404
2017-06-04T01:14:37.004Z,2388
2017-06-04T01:15:39.628Z,2376
2017-06-04T01:16:42.333Z,2360
2017-06-04T01:17:45.040Z,2348
2017-06-04T01:18:47.734Z,2328
2017-06-04T01:19:50.773Z,2312
2017-06-04T01:20:53.452Z,2304
2017-06-04T01:21:56.222Z,2296
2017-06-04T01:22:58.931Z,2292
2017-06-04T01:24:03.819Z,2276
2017-06-04T01:25:06.369Z,2256
2017-06-04T01:26:08.985Z,2232
2017-06-04T01:27:13.675Z,2208
2017-06-04T01:28:16.262Z,2184
2017-06-04T01:29:18.754Z,2156
2017-06-04T01:30:23.484Z,2128
2017-06-04T01:31:28.605Z,2128
2017-06-04T01:32:31.283Z,2108
2017-06-04T01:33:33.897Z,2092
2017-06-04T01:34:36.461Z,2068
2017-06-04T01:35:39.275Z,2012
2017-06-04T01:36:41.942Z,1932
2017-06-04T01:37:44.523Z,1844
2017-06-04T01:38:47.233Z,1756
2017-06-04T01:39:50.045Z,1676
2017-06-04T01:40:53.487Z,1604
2017-06-04T01:41:56.083Z,1556
2017-06-04T01:42:58.776Z,1500
2017-06-04T01:44:01.489Z,1440
2017-06-04T01:45:04.198Z,1380
2017-06-04T01:46:06.798Z,1348
2017-06-04T01:47:09.502Z,1332
2017-06-04T01:48:12.065Z,1328
2017-06-04T01:49:14.599Z,1332
2017-06-04T01:50:17.323Z,1340
2017-06-04T01:51:19.906Z,1332
2017-06-04T01:52:22.563Z,1316
2017-06-04T01:53:25.385Z,1292
2017-06-04T01:54:27.928Z,1276
2017-06-04T01:55:30.526Z,1268
2017-06-04T01:56:33.059Z,1260
2017-06-04T01:57:35.600Z,1252
2017-06-04T01:58:38.241Z,1240
2017-06-04T01:59:40.828Z,1236
2017-06-04T02:00:45.428Z,1228
2017-06-04T02:01:54.846Z,1232
2017-06-04T02:02:57.501Z,1220
2017-06-04T02:04:04.316Z,1204
2017-06-04T02:05:07.023Z,1180
2017-06-04T02:06:10.341Z,1168
2017-06-04T02:07:13.011Z,1152
2017-06-04T02:08:15.560Z,1140
2017-06-04T02:09:18.227Z,1144
2017-06-04T02:10:20.821Z,1148
2017-06-04T02:11:23.529Z,1152
2017-06-04T02:12:26.195Z,1152
2017-06-04T02:13:28.893Z,1148
2017-06-04T02:14:31.573Z,1136
2017-06-04T02:15:34.159Z,1124
2017-06-04T02:16:36.868Z,1116
2017-06-04T02:17:39.453Z,1104
2017-06-04T02:18:42.073Z,1092
2017-06-04T02:19:44.671Z,1064
2017-06-04T02:20:47.262Z,1044
2017-06-04T02:21:49.869Z,1028
2017-06-04T02:22:52.572Z,1020
2017-06-04T02:23:55.220Z,1008
2017-06-04T02:24:57.752Z,1012
2017-06-04T02:26:00.489Z,1016
2017-06-04T02:27:03.001Z,1008
2017-06-04T02:28:05.545Z,1000
2017-06-04T02:29:08.077Z,996
2017-06-04T02:30:10.682Z,992
2017-06-04T02:31:13.212Z,988
2017-06-04T02:32:15.762Z,988
2017-06-04T02:33:18.333Z,988
2017-06-04T02:34:20.921Z,988
2017-06-04T02:35:23.607Z,980
2017-06-04T02:36:26.264Z,980
2017-06-04T02:37:28.739Z,972
2017-06-04T02:38:31.272Z,968
2017-06-04T02:39:33.766Z,956
2017-06-04T02:40:36.485Z,944
2017-06-04T02:41:39.232Z,944
2017-06-04T02:42:41.915Z,936
2017-06-04T02:43:44.578Z,920
2017-06-04T02:44:47.237Z,904
2017-06-04T02:45:49.922Z,896
2017-06-04T02:46:52.592Z,884
2017-06-04T02:47:55.279Z,880
2017-06-04T02:48:57.968Z,876
2017-06-04T02:50:00.540Z,868
2017-06-04T02:51:03.742Z,856
2017-06-04T02:52:06.667Z,840
2017-06-04T02:53:09.254Z,820
2017-06-04T02:54:11.940Z,804
2017-06-04T02:55:14.623Z,788
2017-06-04T02:56:17.240Z,764
2017-06-04T02:57:19.850Z,740
2017-06-04T02:58:22.448Z,716
2017-06-04T02:59:25.150Z,696
2017-06-04T03:00:31.460Z,672
2017-06-04T03:01:38.106Z,648
2017-06-04T03:02:40.494Z,628
2017-06-04T03:03:43.090Z,608
2017-06-04T03:04:45.751Z,600
2017-06-04T03:05:48.255Z,596
2017-06-04T03:06:50.773Z,592
2017-06-04T03:07:53.264Z,584
2017-06-04T03:08:55.757Z,568
2017-06-04T03:09:58.554Z,548
2017-06-04T03:11:01.016Z,528
2017-06-04T03:12:03.752Z,500
2017-06-04T03:13:06.215Z,484
2017-06-04T03:14:08.909Z,472
2017-06-04T03:15:11.594Z,460
2017-06-04T03:16:14.261Z,448
2017-06-04T03:17:16.981Z,444
2017-06-04T03:18:19.553Z,440
2017-06-04T03:19:22.138Z,440
2017-06-04T03:20:24.750Z,440
2017-06-04T03:21:27.434Z,444
2017-06-04T03:22:30.118Z,440
2017-06-04T03:23:34.342Z,436
2017-06-04T03:24:38.843Z,428
2017-06-04T03:25:46.518Z,416
2017-06-04T03:26:49.035Z,412
2017-06-04T03:27:53.867Z,408
2017-06-04T03:28:56.482Z,400
2017-06-04T03:29:59.037Z,400
2017-06-04T03:31:01.713Z,400
2017-06-04T03:32:04.303Z,404
2017-06-04T03:33:07.002Z,412
2017-06-04T03:34:13.711Z,420
2017-06-04T03:35:19.768Z,428
2017-06-04T03:36:22.293Z,440
2017-06-04T03:37:24.778Z,448
2017-06-04T03:38:27.486Z,448
2017-06-04T03:39:30.113Z,452
2017-06-04T03:40:32.673Z,452
2017-06-04T03:41:36.092Z,448
2017-06-04T03:42:38.622Z,444
2017-06-04T03:43:41.318Z,440
2017-06-04T03:44:43.980Z,436
2017-06-04T03:45:46.659Z,432
2017-06-04T03:46:51.612Z,428
2017-06-04T03:47:54.179Z,424
2017-06-04T03:48:56.747Z,424
2017-06-04T03:49:59.326Z,416
2017-06-04T03:51:02.530Z,412
2017-06-04T03:52:05.078Z,408
2017-06-04T03:53:07.661Z,408
2017-06-04T03:54:10.311Z,408
2017-06-04T03:55:15.688Z,408
2017-06-04T03:56:18.219Z,408
2017-06-04T03:57:20.812Z,412
2017-06-04T03:58:25.406Z,416
2017-06-04T03:59:28.015Z,420
2017-06-04T04:00:32.992Z,420
2017-06-04T04:01:39.654Z,424
2017-06-04T04:02:41.859Z,432
2017-06-04T04:03:44.439Z,440
2017-06-04T04:04:47.138Z,444
2017-06-04T04:05:49.801Z,460
2017-06-04T04:06:52.491Z,468
2017-06-04T04:07:57.163Z,476
2017-06-04T04:08:59.704Z,488
2017-06-04T04:10:02.369Z,496
2017-06-04T04:11:05.062Z,512
2017-06-04T04:12:07.628Z,520
2017-06-04T04:13:10.330Z,528
2017-06-04T04:14:12.897Z,532
2017-06-04T04:15:16.298Z,528
2017-06-04T04:16:18.901Z,532
2017-06-04T04:17:21.998Z,540
2017-06-04T04:18:24.491Z,556
2017-06-04T04:19:27.037Z,560
2017-06-04T04:20:29.557Z,572
2017-06-04T04:21:32.200Z,576
2017-06-04T04:22:34.846Z,588
2017-06-04T04:23:38.555Z,596
2017-06-04T04:24:41.009Z,608
2017-06-04T04:25:43.702Z,620
2017-06-04T04:26:46.345Z,632
2017-06-04T04:27:48.917Z,644
2017-06-04T04:28:51.588Z,652
2017-06-04T04:29:54.161Z,664
2017-06-04T04:30:58.510Z,672
2017-06-04T04:32:01.071Z,680
2017-06-04T04:33:04.560Z,684
2017-06-04T04:34:07.165Z,684
2017-06-04T04:35:09.851Z,688
2017-06-04T04:36:12.517Z,692
2017-06-04T04:37:15.194Z,700
2017-06-04T04:38:17.859Z,708
2017-06-04T04:39:20.426Z,732
2017-06-04T04:40:23.019Z,756
2017-06-04T04:41:25.608Z,776
2017-06-04T04:42:28.186Z,796
2017-06-04T04:43:30.729Z,816
2017-06-04T04:44:33.490Z,832
2017-06-04T04:45:37.705Z,852
2017-06-04T04:46:40.159Z,872
2017-06-04T04:47:43.652Z,900
2017-06-04T04:48:46.360Z,916
2017-06-04T04:49:50.568Z,940
2017-06-04T04:50:53.131Z,952
2017-06-04T04:51:55.644Z,976
2017-06-04T04:52:58.230Z,1000
2017-06-04T04:54:00.829Z,1024
2017-06-04T04:55:03.330Z,1048
2017-06-04T04:56:05.867Z,1056
2017-06-04T04:57:09.411Z,1064
2017-06-04T04:58:11.882Z,1072
2017-06-04T04:59:14.577Z,1080
2017-06-04T05:00:19.834Z,1076
2017-06-04T05:01:28.551Z,1060
2017-06-04T05:02:31.889Z,1048
2017-06-04T05:03:34.581Z,1036
2017-06-04T05:04:37.250Z,1028
2017-06-04T05:05:39.919Z,1024
2017-06-04T05:06:42.632Z,1028
2017-06-04T05:07:45.164Z,1032
2017-06-04T05:08:47.679Z,1036
2017-06-04T05:09:50.279Z,1028
2017-06-04T05:10:52.858Z,1032
2017-06-04T05:11:55.347Z,1040
2017-06-04T05:12:57.829Z,1052
2017-06-04T05:14:00.320Z,1064
2017-06-04T05:15:02.848Z,1072
2017-06-04T05:16:05.431Z,1092
2017-06-04T05:17:08.117Z,1108
2017-06-04T05:18:10.783Z,1124
2017-06-04T05:19:14.975Z,1136
2017-06-04T05:20:17.597Z,1144
2017-06-04T05:21:20.215Z,1156
2017-06-04T05:22:22.892Z,1176
2017-06-04T05:23:25.447Z,1200
2017-06-04T05:24:28.163Z,1232
2017-06-04T05:25:30.827Z,1264
2017-06-04T05:26:33.500Z,1300
2017-06-04T05:27:36.172Z,1348
2017-06-04T05:28:38.849Z,1396
2017-06-04T05:29:41.430Z,1436
2017-06-04T05:30:44.001Z,1464
2017-06-04T05:31:46.578Z,1496
2017-06-04T05:32:49.250Z,1528
2017-06-04T05:33:51.913Z,1544
2017-06-04T05:34:54.582Z,1556
2017-06-04T05:35:57.255Z,1552
2017-06-04T05:36:59.774Z,1552
2017-06-04T05:38:02.258Z,1576
2017-06-04T05:39:04.851Z,1592
2017-06-04T05:40:07.505Z,1612
2017-06-04T05:41:10.016Z,1628
2017-06-04T05:42:12.509Z,1636
2017-06-04T05:43:15.106Z,1644
2017-06-04T05:44:17.765Z,1676
2017-06-04T05:45:20.408Z,1708
2017-06-04T05:46:22.946Z,1724
2017-06-04T05:47:25.525Z,1720
2017-06-04T05:48:28.171Z,1692
2017-06-04T05:49:30.754Z,1620
2017-06-04T05:50:33.293Z,1496
2017-06-04T05:51:35.827Z,1428
2017-06-04T05:52:38.427Z,1416
2017-06-04T05:53:41.011Z,1416
2017-06-04T05:54:43.547Z,1408
2017-06-04T05:55:46.122Z,1400
2017-06-04T05:56:48.764Z,1396
2017-06-04T05:57:51.333Z,1396
2017-06-04T05:58:53.921Z,1400
2017-06-04T05:59:56.492Z,1404
2017-06-04T06:01:00.371Z,1412
2017-06-04T06:02:07.947Z,1428
2017-06-04T06:03:10.424Z,1448
2017-06-04T06:04:13.151Z,1468
2017-06-04T06:05:15.822Z,1496
2017-06-04T06:06:18.339Z,1524
2017-06-04T06:07:20.839Z,1580
2017-06-04T06:08:23.430Z,1664
2017-06-04T06:09:25.961Z,1772
2017-06-04T06:10:28.544Z,1872
2017-06-04T06:11:31.147Z,1948
2017-06-04T06:12:33.722Z,2016
2017-06-04T06:13:36.256Z,2096
2017-06-04T06:14:38.952Z,2188
2017-06-04T06:15:41.623Z,2300
2017-06-04T06:16:44.397Z,2408
2017-06-04T06:17:47.810Z,2532
2017-06-04T06:18:51.457Z,2660
2017-06-04T06:19:54.022Z,2772
2017-06-04T06:20:56.504Z,2832
2017-06-04T06:21:59.092Z,2908
2017-06-04T06:23:01.675Z,3020
2017-06-04T06:24:04.350Z,3068
2017-06-04T06:25:06.917Z,3024
2017-06-04T06:26:09.496Z,2952
2017-06-04T06:27:12.266Z,2940
2017-06-04T06:28:14.960Z,3000
2017-06-04T06:29:17.689Z,3088
2017-06-04T06:30:20.384Z,3188
2017-06-04T06:31:22.918Z,3240
2017-06-04T06:32:25.454Z,3284
2017-06-04T06:33:28.055Z,3340
2017-06-04T06:34:30.721Z,3388
2017-06-04T06:35:33.291Z,3412
2017-06-04T06:36:35.868Z,3448
2017-06-04T06:37:38.474Z,3484
2017-06-04T06:38:40.998Z,3532
2017-06-04T06:39:43.654Z,3560
2017-06-04T06:40:46.184Z,3556
2017-06-04T06:41:48.798Z,3532
2017-06-04T06:42:51.339Z,3528
2017-06-04T06:43:53.823Z,3568
2017-06-04T06:44:56.417Z,3640
2017-06-04T06:45:58.964Z,3720
2017-06-04T06:47:01.446Z,3812
2017-06-04T06:48:04.043Z,3860
2017-06-04T06:49:06.522Z,3876
2017-06-04T06:50:09.217Z,3904
2017-06-04T06:51:11.783Z,3940
2017-06-04T06:52:14.490Z,3964
2017-06-04T06:53:17.180Z,3996
2017-06-04T06:54:19.867Z,4048
2017-06-04T06:55:22.559Z,4128
2017-06-04T06:56:25.242Z,4144
2017-06-04T06:57:27.922Z,4184
2017-06-04T06:58:30.592Z,4264
2017-06-04T06:59:33.267Z,4364
2017-06-04T07:00:41.360Z,4460
2017-06-04T07:01:48.550Z,4520
2017-06-04T07:02:51.569Z,4556
2017-06-04T07:03:54.196Z,4576
2017-06-04T07:04:56.880Z,4592
2017-06-04T07:05:59.394Z,4592
2017-06-04T07:07:01.979Z,4600
2017-06-04T07:08:04.557Z,4644
2017-06-04T07:09:07.240Z,4724
2017-06-04T07:10:09.883Z,4808
2017-06-04T07:11:12.461Z,4924
2017-06-04T07:12:15.047Z,5068
2017-06-04T07:13:17.723Z,5212
2017-06-04T07:14:20.421Z,5336
2017-06-04T07:15:23.097Z,5424
2017-06-04T07:16:25.681Z,5520
2017-06-04T07:17:28.370Z,5664
2017-06-04T07:18:31.081Z,5832
2017-06-04T07:19:33.546Z,6020
2017-06-04T07:20:36.125Z,6160
2017-06-04T07:21:38.650Z,6232
2017-06-04T07:22:41.151Z,6220
2017-06-04T07:23:43.680Z,6212
2017-06-04T07:24:46.338Z,6172
2017-06-04T07:25:48.869Z,6152
2017-06-04T07:26:51.395Z,6140
2017-06-04T07:27:53.974Z,6160
2017-06-04T07:28:56.505Z,6264
2017-06-04T07:29:59.105Z,6500
2017-06-04T07:31:01.712Z,6840
2017-06-04T07:32:04.430Z,7196
2017-06-04T07:33:07.007Z,7464
2017-06-04T07:34:09.584Z,7624
2017-06-04T07:35:12.180Z,7692
2017-06-04T07:36:14.766Z,7644
2017-06-04T07:37:17.369Z,7548
2017-06-04T07:38:19.956Z,7460
2017-06-04T07:39:22.711Z,7408
2017-06-04T07:40:25.318Z,7392
2017-06-04T07:41:27.961Z,7452
2017-06-04T07:42:30.681Z,7600
2017-06-04T07:43:33.471Z,7808
2017-06-04T07:44:36.203Z,8076
2017-06-04T07:45:38.884Z,8380
2017-06-04T07:46:41.528Z,8656
2017-06-04T07:47:44.014Z,8860
2017-06-04T07:48:46.734Z,9008
2017-06-04T07:49:49.309Z,9132
2017-06-04T07:50:52.018Z,9240
2017-06-04T07:51:54.824Z,9424
2017-06-04T07:52:57.556Z,9704
2017-06-04T07:54:00.250Z,10108
2017-06-04T07:55:02.845Z,10532
2017-06-04T07:56:05.457Z,10888
2017-06-04T07:57:08.059Z,11260
2017-06-04T07:58:10.665Z,11728
2017-06-04T07:59:13.148Z,12292
2017-06-04T08:00:18.535Z,12856
2017-06-04T08:01:25.041Z,13344
2017-06-04T08:02:29.531Z,13640
2017-06-04T08:03:32.242Z,13532
2017-06-04T08:04:34.717Z,12864
2017-06-04T08:05:37.321Z,11968
2017-06-04T08:06:39.900Z,11332
2017-06-04T08:07:42.449Z,11048
2017-06-04T08:08:45.075Z,10908
2017-06-04T08:09:47.607Z,10800
2017-06-04T08:10:50.138Z,10704
2017-06-04T08:11:52.914Z,10580
2017-06-04T08:12:55.601Z,10464
2017-06-04T08:13:58.286Z,10404
2017-06-04T08:15:00.966Z,10416
2017-06-04T08:16:03.545Z,10416
2017-06-04T08:17:06.127Z,10420
2017-06-04T08:18:08.801Z,10408
2017-06-04T08:19:12.308Z,10404
2017-06-04T08:20:14.987Z,10384
2017-06-04T08:21:17.509Z,10376
2017-06-04T08:22:20.096Z,10376
2017-06-04T08:23:23.358Z,10396
2017-06-04T08:24:25.908Z,10484
2017-06-04T08:25:28.577Z,10632
2017-06-04T08:26:31.217Z,10824
2017-06-04T08:27:33.703Z,11012
2017-06-04T08:28:36.384Z,11124
2017-06-04T08:29:38.912Z,11144
2017-06-04T08:30:41.496Z,11092
2017-06-04T08:31:44.018Z,11024
2017-06-04T08:32:46.707Z,10984
2017-06-04T08:33:49.383Z,11012
2017-06-04T08:34:52.060Z,11076
2017-06-04T08:35:54.735Z,11132
2017-06-04T08:36:57.417Z,11172
2017-06-04T08:38:00.092Z,11172
2017-06-04T08:39:02.762Z,11100
2017-06-04T08:40:05.462Z,11036
2017-06-04T08:41:08.138Z,11032
2017-06-04T08:42:10.718Z,11108
2017-06-04T08:43:13.316Z,11220
2017-06-04T08:44:15.893Z,11364
2017-06-04T08:45:18.473Z,11512
2017-06-04T08:46:21.154Z,11628
2017-06-04T08:47:23.832Z,11712
2017-06-04T08:48:26.411Z,11812
2017-06-04T08:49:28.949Z,11928
2017-06-04T08:50:31.501Z,12080
2017-06-04T08:51:34.060Z,12288
2017-06-04T08:52:36.796Z,12536
2017-06-04T08:53:39.402Z,12808
2017-06-04T08:54:41.884Z,13072
2017-06-04T08:55:44.402Z,13268
2017-06-04T08:56:46.896Z,13392
2017-06-04T08:57:49.446Z,13540
2017-06-04T08:58:52.120Z,13772
2017-06-04T08:59:54.706Z,14044
2017-06-04T09:00:57.875Z,14372
2017-06-04T09:02:04.239Z,14720
2017-06-04T09:03:06.770Z,15124
2017-06-04T09:04:09.508Z,15396
2017-06-04T09:05:12.211Z,15580
2017-06-04T09:06:14.745Z,15696
2017-06-04T09:07:17.425Z,15736
2017-06-04T09:08:19.994Z,15776
2017-06-04T09:09:22.725Z,16000
2017-06-04T09:10:25.364Z,16328
2017-06-04T09:11:27.970Z,16608
2017-06-04T09:12:30.553Z,16864
2017-06-04T09:13:33.247Z,16832
2017-06-04T09:14:35.919Z,16644
2017-06-04T09:15:38.595Z,16552
2017-06-04T09:16:41.894Z,16832
2017-06-04T09:17:44.573Z,17248
2017-06-04T09:18:47.103Z,17792
2017-06-04T09:19:49.772Z,18400
2017-06-04T09:20:52.337Z,18752
2017-06-04T09:21:54.926Z,18752
2017-06-04T09:22:57.509Z,18496
2017-06-04T09:24:00.037Z,18208
2017-06-04T09:25:02.632Z,18048
2017-06-04T09:26:05.228Z,17920
2017-06-04T09:27:07.811Z,17888
2017-06-04T09:28:10.520Z,17920
2017-06-04T09:29:13.113Z,18144
2017-06-04T09:30:15.693Z,18496
2017-06-04T09:31:18.530Z,18816
2017-06-04T09:32:21.194Z,19040
2017-06-04T09:33:23.967Z,19264
2017-06-04T09:34:26.652Z,19424
2017-06-04T09:35:29.229Z,19552
2017-06-04T09:36:31.840Z,19712
2017-06-04T09:37:34.509Z,19840
2017-06-04T09:38:37.104Z,19744
2017-06-04T09:39:39.700Z,19584
2017-06-04T09:40:43.112Z,19296
2017-06-04T09:41:45.700Z,18848
2017-06-04T09:42:48.293Z,18368
2017-06-04T09:43:50.914Z,18112
2017-06-04T09:44:53.451Z,17824
2017-06-04T09:45:56.042Z,17696
2017-06-04T09:46:58.528Z,17728
2017-06-04T09:48:01.073Z,17760
2017-06-04T09:49:03.638Z,17824
2017-06-04T09:50:06.175Z,18016
2017-06-04T09:51:08.765Z,18208
2017-06-04T09:52:11.444Z,18528
2017-06-04T09:53:14.123Z,18368
2017-06-04T09:54:16.882Z,18304
2017-06-04T09:55:19.540Z,18368
2017-06-04T09:56:22.210Z,18176
2017-06-04T09:57:24.809Z,17600
2017-06-04T09:58:27.388Z,16924
2017-06-04T09:59:29.993Z,16472
2017-06-04T10:00:35.307Z,16236
2017-06-04T10:01:41.351Z,16492
2017-06-04T10:02:43.933Z,17664
2017-06-04T10:03:46.622Z,19040
2017-06-04T10:04:49.202Z,20544
2017-06-04T10:05:51.788Z,21632
2017-06-04T10:06:54.421Z,22624
2017-06-04T10:07:56.994Z,22784
2017-06-04T10:08:59.763Z,22688
2017-06-04T10:10:02.243Z,22592
2017-06-04T10:11:04.902Z,22464
2017-06-04T10:12:07.545Z,22752
2017-06-04T10:13:10.133Z,23072
2017-06-04T10:14:12.797Z,23008
2017-06-04T10:15:15.329Z,23200
2017-06-04T10:16:17.928Z,23904
2017-06-04T10:17:20.595Z,24960
2017-06-04T10:18:23.128Z,26752
2017-06-04T10:19:25.681Z,28256
2017-06-04T10:20:28.296Z,29184
2017-06-04T10:21:30.809Z,30208
2017-06-04T10:22:33.363Z,31680
2017-06-04T10:23:35.909Z,32032
2017-06-04T10:24:38.405Z,31872
2017-06-04T10:25:41.072Z,31648
2017-06-04T10:26:43.675Z,31328
2017-06-04T10:27:46.368Z,31200
2017-06-04T10:28:49.024Z,31360
2017-06-04T10:29:51.710Z,32096
2017-06-04T10:30:54.394Z,32256
2017-06-04T10:31:57.123Z,31488
2017-06-04T10:32:59.804Z,30304
2017-06-04T10:34:02.395Z,30432
2017-06-04T10:35:05.132Z,31552
2017-06-04T10:36:07.836Z,32544
2017-06-04T10:37:10.553Z,34688
2017-06-04T10:38:13.104Z,36768
2017-06-04T10:39:15.652Z,36768
2017-06-04T10:40:18.275Z,36000
2017-06-04T10:41:20.962Z,36832
2017-06-04T10:42:23.638Z,40288
2017-06-04T10:43:26.345Z,43872
2017-06-04T10:44:29.021Z,42112
2017-06-04T10:45:31.723Z,39808
2017-06-04T10:46:34.424Z,36896
2017-06-04T10:47:37.001Z,34144
2017-06-04T10:48:39.606Z,32320
2017-06-04T10:49:42.191Z,31456
2017-06-04T10:50:44.891Z,31264
2017-06-04T10:51:47.367Z,30880
2017-06-04T10:52:49.924Z,31040
2017-06-04T10:53:52.451Z,31232
2017-06-04T10:54:55.161Z,30592
2017-06-04T10:55:57.871Z,29216
2017-06-04T10:57:00.568Z,28224
2017-06-04T10:58:03.269Z,28032
2017-06-04T10:59:06.054Z,28032
2017-06-04T11:00:10.615Z,27520
2017-06-04T11:01:15.464Z,27360
2017-06-04T11:02:23.270Z,28320
2017-06-04T11:03:25.826Z,29280
2017-06-04T11:04:28.317Z,29920
2017-06-04T11:05:31.987Z,30336
2017-06-04T11:06:34.476Z,30368
2017-06-04T11:07:37.104Z,31584
2017-06-04T11:08:39.782Z,33984
2017-06-04T11:09:42.369Z,35808
2017-06-04T11:10:45.922Z,38272
2017-06-04T11:11:48.617Z,40736
2017-06-04T11:12:51.230Z,44416
2017-06-04T11:13:53.923Z,47072
2017-06-04T11:14:56.518Z,41728
2017-06-04T11:15:59.117Z,41024
2017-06-04T11:17:01.725Z,39776
2017-06-04T11:18:04.321Z,39008
2017-06-04T11:19:07.040Z,37280
2017-06-04T11:20:09.746Z,31360
2017-06-04T11:21:12.461Z,28544
2017-06-04T11:22:15.159Z,27168
2017-06-04T11:23:17.844Z,27232
2017-06-04T11:24:20.584Z,28032
2017-06-04T11:25:23.287Z,28320
2017-06-04T11:26:26.059Z,28672
2017-06-04T11:27:28.782Z,30816
2017-06-04T11:28:31.258Z,32352
2017-06-04T11:29:34.035Z,35648
2017-06-04T11:30:36.619Z,35040
2017-06-04T11:31:39.108Z,33312
2017-06-04T11:32:41.849Z,31552
2017-06-04T11:33:44.329Z,30656
2017-06-04T11:34:47.022Z,29920
2017-06-04T11:35:49.581Z,29120
2017-06-04T11:36:52.284Z,27968
2017-06-04T11:37:55.745Z,26912
2017-06-04T11:38:58.290Z,25696
2017-06-04T11:40:00.837Z,23328
2017-06-04T11:41:03.538Z,22016
2017-06-04T11:42:06.142Z,21792
2017-06-04T11:43:08.747Z,22336
2017-06-04T11:44:11.348Z,21824
2017-06-04T11:45:14.221Z,21184
2017-06-04T11:46:16.963Z,20576
2017-06-04T11:47:19.659Z,20352
2017-06-04T11:48:22.371Z,20960
2017-06-04T11:49:24.959Z,21664
2017-06-04T11:50:27.562Z,20320
2017-06-04T11:51:32.412Z,19040
2017-06-04T11:52:35.087Z,20096
2017-06-04T11:53:37.668Z,21568
2017-06-04T11:54:41.063Z,22912
2017-06-04T11:55:43.057Z,23296
2017-06-04T11:56:45.629Z,22720
2017-06-04T11:57:48.158Z,23104
2017-06-04T11:58:50.667Z,23392
2017-06-04T11:59:53.175Z,22464
2017-06-04T12:00:56.965Z,22336
2017-06-04T12:02:04.715Z,24736
2017-06-04T12:03:06.582Z,28384
2017-06-04T12:04:09.120Z,31872
2017-06-04T12:05:11.715Z,35072
2017-06-04T12:06:14.449Z,36160
2017-06-04T12:07:17.231Z,34912
2017-06-04T12:08:19.928Z,33440
2017-06-04T12:09:22.626Z,33536
2017-06-04T12:10:25.431Z,35520
2017-06-04T12:11:28.122Z,34400
2017-06-04T12:12:30.714Z,34304
2017-06-04T12:13:33.272Z,36544
2017-06-04T12:14:36.044Z,39712
2017-06-04T12:15:38.738Z,41632
2017-06-04T12:16:41.502Z,40288
2017-06-04T12:17:44.200Z,41344
2017-06-04T12:18:46.777Z,39584
2017-06-04T12:19:49.373Z,36352
2017-06-04T12:20:51.969Z,35808
2017-06-04T12:21:54.674Z,36672
2017-06-04T12:22:57.208Z,37664
2017-06-04T12:23:59.839Z,37120
2017-06-04T12:25:02.438Z,35392
2017-06-04T12:26:04.971Z,33632
2017-06-04T12:27:07.509Z,29792
2017-06-04T12:28:10.198Z,27840
2017-06-04T12:29:12.808Z,27424
2017-06-04T12:30:15.484Z,27776
2017-06-04T12:31:18.011Z,28896
2017-06-04T12:32:20.553Z,31904
2017-06-04T12:33:23.210Z,33952
2017-06-04T12:34:25.826Z,33120
2017-06-04T12:35:28.393Z,33472
2017-06-04T12:36:30.943Z,37216
2017-06-04T12:37:33.436Z,35776
2017-06-04T12:38:35.984Z,35584
2017-06-04T12:39:38.529Z,36384
2017-06-04T12:40:41.162Z,36320
2017-06-04T12:41:43.703Z,36800
2017-06-04T12:42:46.458Z,42272
2017-06-04T12:43:49.147Z,42144
2017-06-04T12:44:51.824Z,38528
2017-06-04T12:45:54.517Z,37280
2017-06-04T12:46:57.106Z,32704
2017-06-04T12:47:59.700Z,28544
2017-06-04T12:49:02.290Z,25728
2017-06-04T12:50:04.964Z,25632
2017-06-04T12:51:07.578Z,25728
2017-06-04T12:52:10.123Z,22880
2017-06-04T12:53:12.743Z,21472
2017-06-04T12:54:15.280Z,23136
2017-06-04T12:55:17.976Z,26656
2017-06-04T12:56:20.785Z,28480
2017-06-04T12:57:23.482Z,30208
2017-06-04T12:58:26.169Z,33792
2017-06-04T12:59:28.749Z,32256
2017-06-04T13:00:36.365Z,31456
2017-06-04T13:01:42.529Z,32384
2017-06-04T13:02:45.122Z,31680
2017-06-04T13:03:47.831Z,32672
2017-06-04T13:04:50.371Z,27712
2017-06-04T13:05:53.050Z,26752
2017-06-04T13:06:55.631Z,26048
2017-06-04T13:07:58.399Z,25280
2017-06-04T13:09:01.078Z,24416
2017-06-04T13:10:03.884Z,26848
2017-06-04T13:11:06.496Z,33184
2017-06-04T13:12:09.093Z,39104
2017-06-04T13:13:11.691Z,47232
2017-06-04T13:14:14.228Z,50688
2017-06-04T13:15:16.891Z,51360
2017-06-04T13:16:19.420Z,62976
2017-06-04T13:17:21.965Z,79680
2017-06-04T13:18:24.521Z,83104
2017-06-04T13:19:27.086Z,80128
2017-06-04T13:20:29.685Z,58176
2017-06-04T13:21:32.359Z,73056
2017-06-04T13:22:34.931Z,84512
2017-06-04T13:23:37.623Z,78048
2017-06-04T13:24:40.344Z,72448
2017-06-04T13:25:49.791Z,66208
2017-06-04T13:26:55.816Z,68224
2017-06-04T13:27:58.464Z,66368
2017-06-04T13:29:01.372Z,70304
2017-06-04T13:30:03.976Z,65536
2017-06-04T13:31:07.406Z,74112
2017-06-04T13:32:10.013Z,59040
2017-06-04T13:33:12.742Z,53440
2017-06-04T13:34:15.438Z,51360
2017-06-04T13:35:18.215Z,59648
2017-06-04T13:36:21.004Z,56928
2017-06-04T13:37:23.780Z,66240
2017-06-04T13:38:26.478Z,73472
2017-06-04T13:39:29.227Z,109024
2017-06-04T13:40:31.985Z,78752
2017-06-04T13:41:34.595Z,128064
2017-06-04T13:42:37.135Z,142368
2017-06-04T13:43:39.873Z,134432
2017-06-04T13:44:42.476Z,121408
2017-06-04T13:45:44.991Z,113184
2017-06-04T13:46:49.693Z,91296
2017-06-04T13:47:52.200Z,103648
2017-06-04T13:48:54.715Z,102144